Time;durP1;ratioP1;P1;durP2;ratioP2;P2;SDS_P1;SDS_P2;PMS_P1;PMS_P2;Temp;Humidity;BMP_temperature;BMP_pressure;BME280_temperature;BME280_humidity;BME280_pressure;Samples;Min_cycle;Max_cycle;Signal;HPM_P1;HPM_P2
2021/11/17 02:28:19;;;;;;;936.90;875.85;;;;;;;19.19;54.98;101498.97;5068378;28;20454;-42
2021/11/17 02:31:05;;;;;;;903.55;846.10;;;;;;;19.30;54.74;101525.50;5041259;28;20037;-42
2021/11/17 02:34:03;;;;;;;899.78;842.45;;;;;;;19.38;54.65;101520.41;5053377;28;20163;-42
2021/11/17 02:37:10;;;;;;;888.00;831.25;;;;;;;19.30;54.84;101517.53;5028415;28;20029;-42
2021/11/17 02:39:48;;;;;;;884.05;828.35;;;;;;;19.29;54.57;101517.66;5072398;28;20028;-42
2021/11/17 02:42:20;;;;;;;945.33;882.28;;;;;;;19.26;54.91;101523.22;5071985;28;20020;-41
2021/11/17 02:45:02;;;;;;;;;;;;;;;19.44;54.16;101521.69;5070615;28;20028;-41
2021/11/17 02:48:01;;;;;;;871.80;817.35;;;;;;;19.25;54.76;101519.72;5045809;28;19916;-42
2021/11/17 02:50:54;;;;;;;892.67;836.15;;;;;;;19.14;54.42;101495.84;5070662;28;20036;-42
2021/11/17 02:53:42;;;;;;;910.17;852.42;;;;;;;19.28;54.31;101521.31;5071302;28;20028;-42
2021/11/17 02:56:23;;;;;;;879.97;824.05;;;;;;;19.24;54.58;101514.53;5072656;28;20033;-42
2021/11/17 02:59:07;;;;;;;905.67;846.90;;;;;;;19.25;54.74;101521.56;5071692;28;20025;-43
2021/11/17 03:01:43;;;;;;;865.92;810.65;;;;;;;19.26;54.60;101518.78;5059275;28;20029;-43
2021/11/17 03:04:16;;;;;;;898.72;841.67;;;;;;;19.23;54.77;101507.53;5053449;28;20478;-43
2021/11/17 03:07:01;;;;;;;877.70;820.65;;;;;;;19.25;54.54;101511.75;5060241;28;20025;-43
2021/11/17 03:09:39;;;;;;;883.78;826.95;;;;;;;19.21;54.50;101517.47;5053704;28;20025;-43
2021/11/17 03:12:31;;;;;;;900.65;842.80;;;;;;;19.22;54.73;101521.81;5069419;28;20039;-43
2021/11/17 03:15:00;;;;;;;903.33;844.58;;;;;;;19.16;54.89;101521.34;5073496;28;20125;-43
2021/11/17 03:17:34;;;;;;;879.47;821.30;;;;;;;19.15;54.54;101511.69;5072063;28;20116;-41
2021/11/17 03:20:12;;;;;;;879.80;822.92;;;;;;;19.15;54.60;101505.50;5073755;28;20024;-43
2021/11/17 03:23:07;;;;;;;885.85;829.17;;;;;;;19.17;54.64;101506.22;5069136;28;20035;-43
2021/11/17 03:25:55;;;;;;;887.63;830.95;;;;;;;19.17;54.33;101507.06;5066821;28;20035;-43
2021/11/17 03:28:39;;;;;;;872.28;816.90;;;;;;;19.21;54.62;101510.31;5071494;28;20028;-43
2021/11/17 03:31:21;;;;;;;881.92;824.70;;;;;;;19.18;54.31;101515.88;5076995;28;20455;-42
2021/11/17 03:33:56;;;;;;;892.25;835.53;;;;;;;19.19;54.17;101518.44;5071134;28;20084;-43
2021/11/17 03:36:45;;;;;;;920.67;861.17;;;;;;;19.14;54.55;101517.13;5075788;28;20028;-42
2021/11/17 03:39:31;;;;;;;901.40;843.80;;;;;;;19.15;54.47;101516.13;5059070;28;20040;-43
2021/11/17 03:42:26;;;;;;;877.08;820.72;;;;;;;19.15;54.29;101522.34;5036753;28;20033;-43
2021/11/17 03:45:34;;;;;;;869.45;814.00;;;;;;;19.09;54.36;101522.00;5047886;28;20032;-43
2021/11/17 03:48:29;;;;;;;868.55;814.08;;;;;;;19.13;54.54;101528.75;5074515;28;20034;-43
2021/11/17 03:51:07;;;;;;;884.70;828.53;;;;;;;19.00;54.51;101512.94;5075362;28;20021;-43
2021/11/17 03:54:00;;;;;;;874.05;817.95;;;;;;;19.13;54.40;101526.06;5073105;28;20067;-43
2021/11/17 03:56:45;;;;;;;882.83;826.92;;;;;;;19.14;54.42;101528.63;5075409;28;20033;-42
2021/11/17 03:59:34;;;;;;;881.97;825.60;;;;;;;19.06;54.50;101530.22;5073534;28;20032;-43
2021/11/17 04:02:16;;;;;;;874.75;819.13;;;;;;;19.07;54.38;101540.75;5057528;28;20029;-43
2021/11/17 04:04:48;;;;;;;887.50;831.53;;;;;;;19.06;54.62;101554.19;5057553;28;20024;-42
2021/11/17 04:07:53;;;;;;;868.80;813.30;;;;;;;19.07;54.45;101551.41;5074351;28;20051;-42
2021/11/17 04:10:25;;;;;;;863.17;808.47;;;;;;;19.03;54.62;101549.09;5071743;28;20044;-43
2021/11/17 04:13:13;;;;;;;873.42;817.97;;;;;;;19.02;54.41;101553.59;5040603;28;20030;-42
2021/11/17 04:15:51;;;;;;;869.05;813.67;;;;;;;19.02;54.44;101547.44;5042186;28;20123;-44
2021/11/17 04:18:41;;;;;;;881.80;825.22;;;;;;;19.07;53.91;101547.91;5074873;28;20449;-43
2021/11/17 04:21:23;;;;;;;861.97;807.58;;;;;;;19.05;53.96;101555.16;5072879;28;20033;-43
2021/11/17 04:23:58;;;;;;;861.30;806.50;;;;;;;19.03;54.04;101560.63;5074493;28;20040;-43
2021/11/17 04:26:58;;;;;;;872.08;816.20;;;;;;;19.03;54.05;101546.44;5067726;28;20040;-43
2021/11/17 04:29:53;;;;;;;876.05;818.63;;;;;;;18.88;54.24;101533.44;5048390;28;20025;-42
2021/11/17 04:32:38;;;;;;;864.85;809.33;;;;;;;18.98;54.05;101555.66;5044028;28;20040;-42
2021/11/17 04:35:13;;;;;;;868.67;814.35;;;;;;;18.94;54.42;101551.56;5056063;28;20029;-43
2021/11/17 04:38:08;;;;;;;883.90;827.22;;;;;;;18.95;54.37;101558.56;5057286;28;20050;-43
2021/11/17 04:40:49;;;;;;;878.90;822.85;;;;;;;18.95;54.28;101561.22;5035031;28;20030;-43
2021/11/17 04:43:40;;;;;;;895.22;836.80;;;;;;;18.95;54.19;101553.25;5044840;28;20039;-42
2021/11/17 04:46:22;;;;;;;893.75;836.67;;;;;;;18.98;54.25;101562.81;5045113;28;20037;-43
2021/11/17 04:49:13;;;;;;;890.40;834.15;;;;;;;19.01;54.22;101554.59;5044338;28;20101;-43
2021/11/17 04:51:59;;;;;;;876.50;821.33;;;;;;;18.98;54.23;101553.00;5035943;28;20037;-42
2021/11/17 04:54:25;;;;;;;857.20;802.53;;;;;;;18.97;54.10;101555.78;5056360;28;20462;-43
2021/11/17 04:57:00;;;;;;;870.75;815.33;;;;;;;18.92;54.29;101558.84;5075498;28;20095;-43
2021/11/17 04:59:45;;;;;;;871.03;814.53;;;;;;;18.91;54.27;101553.63;5072049;28;20039;-43
2021/11/17 05:02:32;;;;;;;888.13;830.90;;;;;;;18.85;53.97;101540.81;5067354;28;20470;-42
2021/11/17 05:05:22;;;;;;;876.00;818.65;;;;;;;18.88;54.29;101557.38;5053066;28;20068;-43
2021/11/17 05:08:08;;;;;;;878.22;821.40;;;;;;;18.85;54.01;101557.66;5055016;28;20032;-42
2021/11/17 05:10:51;;;;;;;857.47;802.65;;;;;;;18.86;54.26;101556.66;5056602;28;20869;-43
2021/11/17 05:13:36;;;;;;;837.35;784.70;;;;;;;18.88;54.05;101552.06;5048946;28;20459;-43
2021/11/17 05:16:20;;;;;;;855.90;801.45;;;;;;;18.88;54.01;101545.91;5042980;28;20436;-42
2021/11/17 05:18:58;;;;;;;851.60;798.55;;;;;;;18.87;54.26;101555.72;5074532;28;20086;-41
2021/11/17 05:21:31;;;;;;;876.08;820.17;;;;;;;18.76;53.84;101545.03;5041673;28;20501;-44
2021/11/17 05:24:03;;;;;;;911.72;853.70;;;;;;;18.84;54.08;101563.94;5073200;28;20089;-43
2021/11/17 05:26:45;;;;;;;854.13;799.95;;;;;;;18.84;53.95;101555.13;5072588;28;20047;-43
2021/11/17 05:29:30;;;;;;;853.95;799.65;;;;;;;18.85;54.11;101564.78;5071792;28;20036;-42
2021/11/17 05:32:16;;;;;;;926.90;868.08;;;;;;;18.82;54.17;101565.03;5072393;28;20051;-43
2021/11/17 05:34:57;;;;;;;874.97;819.97;;;;;;;18.81;53.92;101561.50;5073423;28;20446;-43
2021/11/17 05:38:02;;;;;;;872.05;816.17;;;;;;;18.80;54.10;101558.00;5058661;28;20873;-42
2021/11/17 05:40:34;;;;;;;869.25;815.35;;;;;;;18.78;53.84;101559.94;5054482;28;20104;-42
2021/11/17 05:43:06;;;;;;;878.05;822.58;;;;;;;18.56;53.67;101517.41;5055861;28;20032;-43
2021/11/17 05:45:32;;;;;;;848.20;794.13;;;;;;;18.65;53.85;101532.63;5072464;28;20024;-43
2021/11/17 05:48:19;;;;;;;878.55;823.15;;;;;;;18.80;53.77;101559.81;5064409;28;20021;-42
2021/11/17 05:50:58;;;;;;;839.47;786.22;;;;;;;18.77;54.17;101554.72;5058146;28;20037;-43
2021/11/17 05:53:46;;;;;;;866.92;811.75;;;;;;;18.71;53.84;101561.41;5054089;28;20031;-43
2021/11/17 05:56:26;;;;;;;899.85;842.92;;;;;;;18.73;53.85;101555.97;5070843;28;20024;-43
2021/11/17 05:59:13;;;;;;;872.95;816.95;;;;;;;18.74;53.71;101549.66;5073615;28;20350;-42
2021/11/17 06:01:51;;;;;;;866.90;812.33;;;;;;;18.74;54.02;101561.16;5070245;28;20028;-42
2021/11/17 06:04:17;;;;;;;847.72;794.22;;;;;;;18.71;53.67;101556.09;5074551;28;20392;-43
2021/11/17 06:06:43;;;;;;;831.58;777.90;;;;;;;18.72;53.85;101556.91;5068068;28;20032;-43
2021/11/17 06:09:08;;;;;;;862.78;808.17;;;;;;;18.72;53.93;101556.91;5074302;28;20028;-42
2021/11/17 06:11:51;;;;;;;846.33;792.38;;;;;;;18.72;53.61;101552.44;5067393;28;20024;-42
2021/11/17 06:14:18;;;;;;;;;;;;;;;18.91;53.16;101550.97;5074938;28;20024;-43
2021/11/17 06:16:47;;;;;;;834.92;782.58;;;;;;;18.71;53.61;101555.25;5067976;28;19921;-42
2021/11/17 06:19:14;;;;;;;843.33;789.55;;;;;;;18.62;53.41;101536.38;5074404;28;20033;-43
2021/11/17 06:21:40;;;;;;;864.13;809.70;;;;;;;18.68;53.51;101544.84;5067789;28;20029;-43
2021/11/17 06:24:08;;;;;;;835.05;781.75;;;;;;;18.52;53.44;101518.63;5073528;28;20028;-43
2021/11/17 06:26:42;;;;;;;830.80;778.53;;;;;;;18.62;53.69;101547.03;5071181;28;20024;-43
2021/11/17 06:29:24;;;;;;;865.72;809.85;;;;;;;18.61;53.76;101545.31;5070696;28;20458;-43
2021/11/17 06:31:51;;;;;;;875.38;819.35;;;;;;;18.60;53.84;101548.97;5035345;28;20364;-43
2021/11/17 06:34:24;;;;;;;874.42;819.08;;;;;;;18.60;53.70;101546.31;5067567;28;20028;-43
2021/11/17 06:36:50;;;;;;;858.53;804.38;;;;;;;18.64;53.71;101552.22;5074131;28;20028;-42
2021/11/17 06:39:16;;;;;;;818.88;767.67;;;;;;;18.67;53.28;101553.78;5067816;28;20033;-42
2021/11/17 06:41:42;;;;;;;837.53;783.97;;;;;;;18.65;53.37;101547.75;5074151;28;20054;-43
2021/11/17 06:44:08;;;;;;;844.42;790.90;;;;;;;18.63;53.13;101550.53;5061582;28;20486;-42
2021/11/17 06:46:35;;;;;;;861.03;807.08;;;;;;;18.60;53.38;101550.75;5034097;28;20029;-43
2021/11/17 06:49:01;;;;;;;853.10;798.95;;;;;;;18.57;53.61;101556.34;5058564;28;20044;-43
2021/11/17 06:51:27;;;;;;;890.25;833.45;;;;;;;18.57;53.63;101546.56;5058398;28;20098;-41
2021/11/17 06:53:53;;;;;;;865.30;810.00;;;;;;;18.53;53.62;101544.25;5060204;28;20447;-41
2021/11/17 06:56:21;;;;;;;845.95;792.95;;;;;;;18.51;53.55;101538.22;5073105;28;20031;-41
2021/11/17 06:58:47;;;;;;;837.72;785.50;;;;;;;18.51;53.71;101543.53;5073017;28;20021;-42
2021/11/17 07:01:13;;;;;;;850.42;797.25;;;;;;;18.49;53.42;101551.63;5061265;28;20033;-43
2021/11/17 07:03:40;;;;;;;861.20;805.95;;;;;;;18.54;53.24;101551.28;5053676;28;20412;-43
2021/11/17 07:06:06;;;;;;;861.47;807.00;;;;;;;18.49;53.41;101543.66;5055209;28;20043;-43
2021/11/17 07:08:33;;;;;;;862.72;807.92;;;;;;;18.54;53.42;101545.94;5076559;28;20036;-43
2021/11/17 07:10:59;;;;;;;859.97;805.63;;;;;;;18.55;53.33;101552.97;5065642;28;20025;-43
2021/11/17 07:13:25;;;;;;;826.80;775.03;;;;;;;18.53;53.30;101546.91;5076962;28;20028;-43
2021/11/17 07:15:51;;;;;;;863.85;808.92;;;;;;;18.51;53.39;101552.38;5074716;28;20041;-43
2021/11/17 07:18:18;;;;;;;838.83;786.05;;;;;;;18.43;53.15;101529.03;5065538;28;20055;-42
2021/11/17 07:20:44;;;;;;;856.80;802.92;;;;;;;18.31;53.31;101514.06;5052958;28;20036;-42
2021/11/17 07:23:10;;;;;;;855.22;801.35;;;;;;;18.45;53.33;101528.91;5083880;28;20422;-43
2021/11/17 07:25:36;;;;;;;851.92;798.38;;;;;;;18.31;53.16;101513.22;5076937;28;20039;-43
2021/11/17 07:28:03;;;;;;;849.00;794.72;;;;;;;18.09;52.89;101500.81;5071504;28;20054;-43
2021/11/17 07:30:33;;;;;;;861.53;806.78;;;;;;;18.40;53.43;101533.75;5076878;28;20055;-43
2021/11/17 07:33:01;;;;;;;866.95;811.53;;;;;;;18.45;53.22;101536.06;5070750;28;20102;-43
2021/11/17 07:35:28;;;;;;;854.47;800.47;;;;;;;18.45;53.18;101539.56;5065640;28;20029;-42
2021/11/17 07:37:54;;;;;;;837.03;784.47;;;;;;;18.48;52.96;101543.81;5051762;28;20145;-43
2021/11/17 07:40:20;;;;;;;853.80;800.42;;;;;;;18.48;52.78;101546.47;5073979;28;20020;-42
2021/11/17 07:42:47;;;;;;;874.70;818.95;;;;;;;18.35;53.01;101538.59;5068410;28;20039;-43
2021/11/17 07:45:13;;;;;;;873.35;814.28;;;;;;;17.93;52.77;101541.88;5055002;28;20120;-43
2021/11/17 07:47:40;;;;;;;908.30;816.45;;;;;;;17.71;52.39;101540.00;5054040;28;20033;-43
2021/11/17 07:50:06;;;;;;;852.10;795.30;;;;;;;17.52;53.08;101545.03;5058282;28;20547;-41
2021/11/17 07:52:34;;;;;;;855.92;800.33;;;;;;;17.71;52.96;101541.81;5057260;28;20025;-42
2021/11/17 07:55:01;;;;;;;845.28;790.78;;;;;;;17.80;52.61;101541.97;5068158;28;20079;-42
2021/11/17 07:57:27;;;;;;;902.67;846.47;;;;;;;17.88;52.68;101538.72;5073212;28;20039;-42
2021/11/17 07:59:54;;;;;;;856.88;802.65;;;;;;;17.85;52.70;101531.84;5046328;28;20078;-41
2021/11/17 08:02:20;;;;;;;855.63;801.75;;;;;;;17.97;52.65;101521.22;5071301;28;20370;-40
2021/11/17 08:04:47;;;;;;;825.50;773.75;;;;;;;17.86;52.41;101500.81;5037902;28;20040;-42
2021/11/17 08:07:15;;;;;;;856.08;802.15;;;;;;;18.09;52.58;101549.50;5045571;28;20027;-42
2021/11/17 08:09:42;;;;;;;850.30;796.92;;;;;;;17.96;52.34;101523.03;5054106;28;20473;-42
2021/11/17 08:12:09;;;;;;;849.13;795.83;;;;;;;18.02;52.71;101537.66;5061848;28;20037;-42
2021/11/17 08:14:35;;;;;;;833.13;781.00;;;;;;;18.04;52.69;101530.41;5051275;28;20434;-41
2021/11/17 08:17:01;;;;;;;814.97;762.88;;;;;;;18.04;52.51;101533.91;5055102;28;20037;-42
2021/11/17 08:19:27;;;;;;;829.53;777.67;;;;;;;17.98;52.53;101518.44;5052827;28;20017;-42
2021/11/17 08:21:54;;;;;;;867.75;813.03;;;;;;;18.07;52.63;101530.19;5049646;28;20332;-41
2021/11/17 08:24:20;;;;;;;838.40;786.20;;;;;;;18.05;52.59;101524.13;5059153;28;20025;-42
2021/11/17 08:26:46;;;;;;;869.35;814.53;;;;;;;18.08;52.60;101525.69;5059299;28;20036;-42
2021/11/17 08:29:13;;;;;;;843.83;790.78;;;;;;;18.11;52.47;101525.47;5055895;28;20416;-41
2021/11/17 08:31:39;;;;;;;860.83;806.85;;;;;;;18.11;52.69;101528.13;5055650;28;20024;-42
2021/11/17 08:34:05;;;;;;;851.83;798.85;;;;;;;18.13;52.41;101527.00;5054158;28;20444;-42
2021/11/17 08:36:32;;;;;;;852.17;798.58;;;;;;;18.11;52.69;101531.63;5063132;28;20028;-41
2021/11/17 08:38:58;;;;;;;859.85;805.70;;;;;;;18.08;52.48;101542.47;5054915;28;20367;-42
2021/11/17 08:41:25;;;;;;;829.75;777.22;;;;;;;18.05;52.70;101538.25;5066907;28;20396;-41
2021/11/17 08:43:52;;;;;;;829.55;777.30;;;;;;;18.01;52.56;101530.63;5063989;28;20119;-42
2021/11/17 08:46:18;;;;;;;847.42;793.88;;;;;;;17.95;52.62;101521.34;5063842;28;20040;-42
2021/11/17 08:48:44;;;;;;;832.40;779.88;;;;;;;18.02;52.64;101527.88;5055615;28;20033;-42
2021/11/17 08:51:13;;;;;;;818.60;767.13;;;;;;;18.01;52.85;101533.28;5058828;28;20033;-42
2021/11/17 08:53:40;;;;;;;865.72;810.65;;;;;;;18.03;52.58;101528.69;5050710;28;20113;-41
2021/11/17 08:56:07;;;;;;;842.65;789.25;;;;;;;18.02;52.62;101529.69;5064380;28;20040;-41
2021/11/17 08:58:33;;;;;;;845.35;792.78;;;;;;;18.07;52.52;101522.19;5063096;28;20363;-42
2021/11/17 09:01:00;;;;;;;841.00;787.78;;;;;;;18.09;52.23;101514.94;5075321;28;20348;-42
2021/11/17 09:03:27;;;;;;;841.33;788.35;;;;;;;18.07;52.42;101519.53;5054710;28;20037;-42
2021/11/17 09:05:55;;;;;;;846.55;793.67;;;;;;;17.78;52.76;101481.94;5051368;28;20051;-42
2021/11/17 09:08:22;;;;;;;841.35;788.05;;;;;;;18.04;52.49;101519.78;5059914;28;20103;-42
2021/11/17 09:10:50;;;;;;;850.38;797.33;;;;;;;18.01;52.69;101514.69;5064240;28;20040;-42
2021/11/17 09:13:17;;;;;;;844.55;790.55;;;;;;;17.99;52.59;101516.63;5071221;28;20032;-42
2021/11/17 09:15:48;;;;;;;856.17;802.08;;;;;;;17.98;52.76;101507.81;5064526;28;20021;-42
2021/11/17 09:18:15;;;;;;;850.42;796.10;;;;;;;17.85;52.71;101483.13;5054850;28;20016;-42
2021/11/17 09:20:41;;;;;;;857.58;804.15;;;;;;;17.99;52.47;101506.84;5050152;28;20363;-41
2021/11/17 09:23:08;;;;;;;840.47;787.80;;;;;;;17.91;52.48;101495.97;5051942;28;20347;-42
2021/11/17 09:25:34;;;;;;;849.83;796.83;;;;;;;17.98;52.67;101502.50;5053014;28;20053;-44
2021/11/17 09:28:01;;;;;;;860.60;806.35;;;;;;;18.02;52.29;101503.09;5053608;28;20061;-42
2021/11/17 09:30:28;;;;;;;841.05;788.20;;;;;;;18.02;52.40;101509.25;5053838;28;20119;-42
2021/11/17 09:32:57;;;;;;;834.78;782.33;;;;;;;18.00;52.67;101502.38;5053924;28;20125;-42
2021/11/17 09:35:23;;;;;;;859.05;805.60;;;;;;;17.97;52.45;101505.28;5055391;28;20513;-42
2021/11/17 09:37:51;;;;;;;843.60;791.15;;;;;;;17.97;52.55;101502.63;5053793;28;20025;-42
2021/11/17 09:40:23;;;;;;;838.20;785.15;;;;;;;17.93;52.71;101502.03;5057493;28;20449;-42
2021/11/17 09:42:49;;;;;;;;;;;;;;;18.12;52.22;101504.06;5052770;28;20033;-42
2021/11/17 09:45:15;;;;;;;828.50;776.35;;;;;;;17.98;52.46;101513.13;5062529;28;19919;-42
2021/11/17 09:47:42;;;;;;;848.00;794.67;;;;;;;17.87;52.59;101491.84;5056287;28;20055;-42
2021/11/17 09:50:20;;;;;;;836.55;784.05;;;;;;;17.77;52.74;101489.06;5070785;28;20032;-42
2021/11/17 09:53:11;;;;;;;863.25;808.67;;;;;;;17.80;52.80;101507.44;5062682;28;20029;-41
2021/11/17 09:55:41;;;;;;;855.55;801.85;;;;;;;17.94;52.36;101509.00;5058761;28;20123;-42
2021/11/17 09:58:09;;;;;;;851.35;797.97;;;;;;;17.94;52.57;101514.31;5047847;28;20112;-42
2021/11/17 10:01:13;;;;;;;838.38;785.42;;;;;;;17.86;52.33;101506.97;5068382;28;20075;-42
2021/11/17 10:03:57;;;;;;;855.60;801.63;;;;;;;17.92;52.38;101505.63;5048392;28;20045;-42
2021/11/17 10:15:02;;;;;;;860.45;807.05;;;;;;;17.83;52.68;101523.09;5055087;28;20461;-42
2021/11/17 10:17:45;;;;;;;835.47;783.22;;;;;;;17.71;52.62;101502.81;5057786;28;20040;-41
2021/11/17 10:20:14;;;;;;;869.33;815.15;;;;;;;17.81;52.42;101526.84;5067182;28;20017;-42
2021/11/17 10:22:42;;;;;;;863.10;809.25;;;;;;;17.86;52.70;101530.03;5056158;28;20048;-41
2021/11/17 10:25:14;;;;;;;835.80;783.75;;;;;;;17.83;52.38;101544.34;5070452;28;20034;-42
2021/11/17 10:27:57;;;;;;;846.78;794.20;;;;;;;17.88;52.23;101537.91;5058183;28;20518;-42
2021/11/17 10:30:34;;;;;;;848.20;795.17;;;;;;;17.83;52.31;101541.69;5058396;28;20076;-41
2021/11/17 10:33:11;;;;;;;911.63;854.20;;;;;;;17.82;52.51;101533.88;5058505;28;20037;-40
2021/11/17 10:36:12;;;;;;;838.33;785.67;;;;;;;17.83;52.30;101531.06;5063267;28;20037;-42
2021/11/17 10:38:42;;;;;;;874.13;819.50;;;;;;;17.75;52.15;101517.56;5049003;28;20405;-41
2021/11/17 10:41:29;;;;;;;847.40;793.78;;;;;;;17.78;52.27;101527.09;5057673;28;20023;-42
2021/11/17 10:44:00;;;;;;;848.45;795.33;;;;;;;17.75;52.28;101519.38;5056968;28;20091;-42
2021/11/17 10:46:45;;;;;;;854.55;801.50;;;;;;;17.74;52.20;101523.81;5058191;28;20478;-42
2021/11/17 10:49:14;;;;;;;865.75;811.65;;;;;;;17.74;52.19;101525.66;5057324;28;20040;-42
2021/11/17 10:51:51;;;;;;;873.15;818.50;;;;;;;17.64;51.99;101502.47;5073896;28;20028;-42
2021/11/17 10:54:20;;;;;;;851.95;798.72;;;;;;;17.75;52.20;101528.19;5055791;28;20119;-42
2021/11/17 10:57:10;;;;;;;843.00;790.88;;;;;;;17.78;51.93;101521.78;5064790;28;20041;-42
2021/11/17 10:59:37;;;;;;;849.85;796.72;;;;;;;17.75;51.77;101520.22;5041041;28;20406;-42
2021/11/17 11:02:05;;;;;;;841.53;788.67;;;;;;;17.74;51.87;101523.81;5067890;28;20034;-42
2021/11/17 11:04:35;;;;;;;841.88;789.40;;;;;;;17.60;51.96;101524.03;5062719;28;20021;-42
2021/11/17 11:07:17;;;;;;;831.38;779.72;;;;;;;17.65;51.81;101525.38;5058713;28;20028;-41
2021/11/17 11:09:54;;;;;;;840.42;787.85;;;;;;;17.64;51.85;101515.75;5059405;28;20351;-42
2021/11/17 11:12:21;;;;;;;838.97;786.80;;;;;;;17.66;51.85;101516.47;5062793;28;20039;-42
2021/11/17 11:14:56;;;;;;;845.85;793.53;;;;;;;17.39;51.88;101487.56;5064189;28;20104;-42
2021/11/17 11:17:36;;;;;;;862.92;809.05;;;;;;;17.65;51.84;101519.22;5050442;28;20355;-40
2021/11/17 11:20:17;;;;;;;865.90;811.80;;;;;;;17.65;51.67;101513.91;5060938;28;20048;-42
2021/11/17 11:22:59;;;;;;;833.50;781.50;;;;;;;17.66;51.60;101510.31;5056055;28;20032;-42
2021/11/17 11:25:49;;;;;;;833.42;781.63;;;;;;;17.67;51.42;101514.63;5053176;28;20104;-42
2021/11/17 11:28:21;;;;;;;847.30;794.05;;;;;;;17.64;51.28;101506.91;5068627;28;20024;-43
2021/11/17 11:31:11;;;;;;;;;;;;;;;17.80;50.90;101512.75;5055567;28;20025;-42
2021/11/17 11:33:57;;;;;;;843.63;790.72;;;;;;;17.60;51.34;101519.56;5056368;28;19947;-41
2021/11/17 11:36:23;;;;;;;843.50;790.65;;;;;;;17.62;51.17;101524.78;5053536;28;20025;-42
2021/11/17 11:38:53;;;;;;;825.67;774.22;;;;;;;17.56;51.21;101522.59;5056737;28;20036;-42
2021/11/17 11:41:37;;;;;;;810.40;759.90;;;;;;;17.57;51.28;101522.47;5071855;28;20020;-42
2021/11/17 11:44:19;;;;;;;844.10;791.33;;;;;;;17.55;51.25;101527.06;5046591;28;20351;-41
2021/11/17 11:46:47;;;;;;;851.38;797.38;;;;;;;17.56;51.34;101530.56;5056746;28;20036;-42
2021/11/17 11:49:38;;;;;;;851.45;798.42;;;;;;;17.54;51.16;101527.19;5054939;28;20033;-42
2021/11/17 11:52:09;;;;;;;844.78;791.45;;;;;;;17.56;51.02;101530.56;5056360;28;20021;-42
2021/11/17 11:54:54;;;;;;;870.40;816.17;;;;;;;17.58;51.16;101537.44;5067921;28;20028;-42
2021/11/17 11:57:40;;;;;;;852.85;799.30;;;;;;;17.51;50.79;101524.75;5070443;28;20052;-42
2021/11/17 12:00:27;;;;;;;840.58;788.65;;;;;;;17.51;51.12;101533.56;5055786;28;20405;-42
2021/11/17 12:03:03;;;;;;;834.78;782.47;;;;;;;17.49;51.00;101525.72;5059048;28;20064;-42
2021/11/17 12:05:46;;;;;;;828.67;777.25;;;;;;;17.45;51.00;101531.38;5049376;28;20119;-41
2021/11/17 12:08:35;;;;;;;833.55;780.78;;;;;;;17.45;50.88;101523.44;5066327;28;20035;-42
2021/11/17 12:11:07;;;;;;;842.38;788.90;;;;;;;17.43;50.88;101523.53;5042558;28;20028;-42
2021/11/17 12:13:44;;;;;;;845.85;792.40;;;;;;;17.41;50.93;101522.81;5062705;28;20102;-41
2021/11/17 12:16:13;;;;;;;855.90;802.17;;;;;;;17.44;50.93;101521.72;5054749;28;20033;-40
2021/11/17 12:18:59;;;;;;;855.85;802.60;;;;;;;17.44;50.84;101530.53;4991751;28;1897057;-42
2021/11/17 12:21:49;;;;;;;842.28;790.03;;;;;;;17.46;50.79;101527.75;5055141;28;20021;-41
2021/11/17 12:24:25;;;;;;;848.53;795.25;;;;;;;17.48;50.54;101536.44;5053875;28;20116;-42
2021/11/17 12:27:04;;;;;;;861.63;807.35;;;;;;;17.43;50.50;101536.81;5050684;28;20519;-42
2021/11/17 12:30:00;;;;;;;838.78;785.25;;;;;;;17.45;50.17;101539.34;5052913;28;20025;-42
2021/11/17 12:32:32;;;;;;;864.53;810.40;;;;;;;17.42;50.38;101540.41;5051317;28;20067;-41
2021/11/17 12:35:22;;;;;;;852.10;798.30;;;;;;;17.40;50.49;101549.47;5057110;28;20354;-42
2021/11/17 12:37:57;;;;;;;864.33;810.15;;;;;;;17.33;50.34;101543.78;5054817;28;20071;-42
2021/11/17 12:40:45;;;;;;;858.70;804.80;;;;;;;17.36;50.43;101556.00;5075730;28;20021;-42
2021/11/17 12:43:38;;;;;;;849.13;795.90;;;;;;;17.34;50.38;101560.53;5051486;28;20031;-42
2021/11/17 12:46:29;;;;;;;837.10;784.78;;;;;;;17.29;50.49;101563.56;5056320;28;20036;-42
2021/11/17 12:49:03;;;;;;;831.03;779.17;;;;;;;17.38;50.20;101562.88;5035118;28;20116;-42
2021/11/17 12:51:31;;;;;;;868.40;814.20;;;;;;;17.22;50.29;101541.09;5055661;28;20029;-42
2021/11/17 12:54:01;;;;;;;858.20;804.30;;;;;;;17.24;50.32;101547.13;5053655;28;20056;-42
2021/11/17 12:56:36;;;;;;;866.08;811.53;;;;;;;17.29;50.17;101567.06;5061173;28;20028;-42
2021/11/17 12:59:19;;;;;;;838.38;786.00;;;;;;;17.34;50.00;101565.84;5054405;28;20040;-42
2021/11/17 13:01:48;;;;;;;835.30;783.08;;;;;;;17.29;50.01;101566.22;5049108;28;20044;-41
2021/11/17 13:04:14;;;;;;;847.63;794.65;;;;;;;17.31;50.04;101563.44;5053306;28;20028;-41
2021/11/17 13:06:40;;;;;;;842.40;789.40;;;;;;;17.31;50.02;101558.97;5052525;28;20032;-42
2021/11/17 13:09:08;;;;;;;853.38;800.00;;;;;;;17.25;50.03;101557.63;5057076;28;20359;-42
2021/11/17 13:11:44;;;;;;;848.55;794.72;;;;;;;17.11;49.88;101528.63;5051791;28;20029;-42
2021/11/17 13:14:16;;;;;;;852.83;799.97;;;;;;;17.24;49.90;101555.09;5037429;28;20040;-42
2021/11/17 13:16:46;;;;;;;851.07;798.70;;;;;;;17.26;49.91;101547.84;5040552;28;20033;-42
2021/11/17 13:19:22;;;;;;;852.75;799.72;;;;;;;17.24;49.85;101555.94;5057441;28;20021;-42
2021/11/17 13:21:59;;;;;;;856.60;803.75;;;;;;;17.26;49.75;101556.66;5054073;28;20358;-42
2021/11/17 13:24:35;;;;;;;842.42;789.15;;;;;;;17.13;49.37;101528.50;5049328;28;20033;-42
2021/11/17 13:27:07;;;;;;;851.80;798.78;;;;;;;17.21;49.84;101547.34;5052430;28;20450;-42
2021/11/17 13:29:56;;;;;;;856.90;803.83;;;;;;;17.13;49.69;101528.50;5063004;28;20033;-42
2021/11/17 13:32:37;;;;;;;847.45;794.50;;;;;;;17.16;49.79;101545.06;5061091;28;20055;-42
2021/11/17 13:35:29;;;;;;;877.28;822.55;;;;;;;17.20;49.75;101553.63;5050714;28;20029;-41
2021/11/17 13:38:25;;;;;;;848.50;794.92;;;;;;;17.10;49.64;101535.72;5054418;28;20478;-42
2021/11/17 13:40:53;;;;;;;843.88;791.10;;;;;;;17.13;49.65;101542.63;5059404;28;20059;-42
2021/11/17 13:43:20;;;;;;;819.83;769.28;;;;;;;17.17;49.53;101545.91;5053778;28;20513;-42
2021/11/17 13:45:47;;;;;;;858.40;804.47;;;;;;;17.15;49.70;101543.34;5060388;28;20028;-42
2021/11/17 13:48:14;;;;;;;844.00;791.55;;;;;;;17.16;49.62;101546.84;5074635;28;20024;-41
2021/11/17 13:50:41;;;;;;;865.33;811.05;;;;;;;17.17;49.69;101548.56;5056340;28;20370;-42
2021/11/17 13:53:10;;;;;;;877.30;822.35;;;;;;;17.16;49.74;101546.84;5052704;28;20033;-42
2021/11/17 13:55:58;;;;;;;875.70;820.60;;;;;;;17.12;49.43;101546.22;5053776;28;20041;-42
2021/11/17 13:58:25;;;;;;;842.08;790.10;;;;;;;17.13;49.42;101549.75;5047684;28;20504;-42
2021/11/17 14:00:51;;;;;;;846.47;793.30;;;;;;;17.13;49.41;101549.75;5046995;28;20412;-42
2021/11/17 14:03:17;;;;;;;839.38;786.25;;;;;;;17.08;49.44;101558.88;5054558;28;20039;-42
2021/11/17 14:05:46;;;;;;;858.25;804.80;;;;;;;17.04;49.42;101549.47;5053136;28;20501;-42
2021/11/17 14:08:12;;;;;;;865.70;811.25;;;;;;;17.04;49.40;101548.63;5054171;28;20043;-42